sensor_id;sensor_type;location;lat;lon;timestamp;pressure;altitude;pressure_sealevel;temperature;humidity
25650;BME280;13505;45.196;5.696;2023-08-07T04:30:12;99520.25;;;15.70;73.27
25650;BME280;13505;45.196;5.696;2023-08-07T04:35:02;99516.28;;;15.77;72.75
25650;BME280;13505;45.196;5.696;2023-08-07T04:39:53;99509.63;;;15.99;70.52
25650;BME280;13505;45.196;5.696;2023-08-07T04:44:44;99515.44;;;15.92;71.10
25650;BME280;13505;45.196;5.696;2023-08-07T04:49:34;99518.06;;;16.06;70.75
25650;BME280;13505;45.196;5.696;2023-08-07T04:54:25;99524.34;;;16.05;70.31
25650;BME280;13505;45.196;5.696;2023-08-07T04:59:15;99525.97;;;16.08;70.32
25650;BME280;13505;45.196;5.696;2023-08-07T05:04:05;99531.50;;;16.04;69.91
25650;BME280;13505;45.196;5.696;2023-08-07T05:08:56;99529.00;;;16.01;71.22
25650;BME280;13505;45.196;5.696;2023-08-07T05:13:46;99529.28;;;15.82;71.64
25650;BME280;13505;45.196;5.696;2023-08-07T05:18:36;99526.72;;;15.81;71.66
25650;BME280;13505;45.196;5.696;2023-08-07T05:23:27;99528.91;;;15.59;73.00
25650;BME280;13505;45.196;5.696;2023-08-07T05:28:17;99540.88;;;15.67;74.24
25650;BME280;13505;45.196;5.696;2023-08-07T05:33:08;99533.28;;;15.60;74.06
25650;BME280;13505;45.196;5.696;2023-08-07T05:37:58;99538.59;;;15.60;73.88
25650;BME280;13505;45.196;5.696;2023-08-07T05:42:48;99548.81;;;15.38;75.32
25650;BME280;13505;45.196;5.696;2023-08-07T05:47:39;99536.88;;;16.17;71.60
25650;BME280;13505;45.196;5.696;2023-08-07T05:52:29;99549.75;;;15.96;72.52
25650;BME280;13505;45.196;5.696;2023-08-07T05:57:19;99546.97;;;15.98;72.75
25650;BME280;13505;45.196;5.696;2023-08-07T06:02:10;99555.88;;;16.68;69.23
25650;BME280;13505;45.196;5.696;2023-08-07T06:07:01;99555.22;;;16.92;67.39
25650;BME280;13505;45.196;5.696;2023-08-07T06:11:54;99565.22;;;16.60;68.47
25650;BME280;13505;45.196;5.696;2023-08-07T06:16:44;99565.50;;;16.83;66.29
25650;BME280;13505;45.196;5.696;2023-08-07T06:21:35;99576.00;;;17.27;63.52
25650;BME280;13505;45.196;5.696;2023-08-07T06:26:26;99568.09;;;18.29;59.58
25650;BME280;13505;45.196;5.696;2023-08-07T06:31:18;99565.88;;;18.23;59.06
25650;BME280;13505;45.196;5.696;2023-08-07T06:36:08;99568.59;;;18.96;55.92
25650;BME280;13505;45.196;5.696;2023-08-07T06:40:59;99563.94;;;19.47;54.94
25650;BME280;13505;45.196;5.696;2023-08-07T06:45:49;99557.75;;;19.69;53.85
25650;BME280;13505;45.196;5.696;2023-08-07T06:50:40;99556.44;;;19.86;52.34
25650;BME280;13505;45.196;5.696;2023-08-07T06:55:30;99561.53;;;18.46;57.51
25650;BME280;13505;45.196;5.696;2023-08-07T07:00:21;99551.66;;;18.84;54.68
25650;BME280;13505;45.196;5.696;2023-08-07T07:05:11;99558.78;;;20.02;51.21
25650;BME280;13505;45.196;5.696;2023-08-07T07:10:01;99552.81;;;20.10;48.87
25650;BME280;13505;45.196;5.696;2023-08-07T07:14:52;99558.53;;;20.84;47.80
25650;BME280;13505;45.196;5.696;2023-08-07T07:19:42;99546.84;;;20.85;47.45
25650;BME280;13505;45.196;5.696;2023-08-07T07:24:33;99546.75;;;20.63;48.17
25650;BME280;13505;45.196;5.696;2023-08-07T07:29:23;99544.47;;;21.24;46.10
25650;BME280;13505;45.196;5.696;2023-08-07T07:34:13;99545.31;;;21.03;46.90
25650;BME280;13505;45.196;5.696;2023-08-07T07:39:04;99548.94;;;21.66;45.37
25650;BME280;13505;45.196;5.696;2023-08-07T07:43:54;99541.44;;;21.17;47.04
25650;BME280;13505;45.196;5.696;2023-08-07T07:48:46;99534.19;;;22.13;45.10
25650;BME280;13505;45.196;5.696;2023-08-07T07:53:36;99536.47;;;21.86;43.32
25650;BME280;13505;45.196;5.696;2023-08-07T07:58:27;99518.78;;;22.15;44.86
25650;BME280;13505;45.196;5.696;2023-08-07T08:03:17;99526.63;;;23.46;42.61
25650;BME280;13505;45.196;5.696;2023-08-07T08:08:07;99534.75;;;23.07;42.13
25650;BME280;13505;45.196;5.696;2023-08-07T08:12:58;99518.78;;;22.95;42.87
25650;BME280;13505;45.196;5.696;2023-08-07T08:17:48;99517.03;;;23.44;40.97
25650;BME280;13505;45.196;5.696;2023-08-07T08:22:39;99523.03;;;24.03;39.62
25650;BME280;13505;45.196;5.696;2023-08-07T08:27:29;99518.44;;;24.42;39.51
25650;BME280;13505;45.196;5.696;2023-08-07T08:32:19;99523.31;;;24.74;37.25
25650;BME280;13505;45.196;5.696;2023-08-07T08:37:10;99518.63;;;24.58;37.65
25650;BME280;13505;45.196;5.696;2023-08-07T08:42:01;99530.31;;;24.21;36.08
25650;BME280;13505;45.196;5.696;2023-08-07T08:46:52;99515.56;;;24.25;35.20
25650;BME280;13505;45.196;5.696;2023-08-07T08:51:46;99526.63;;;24.50;35.95
25650;BME280;13505;45.196;5.696;2023-08-07T08:56:37;99529.72;;;24.73;35.42
25650;BME280;13505;45.196;5.696;2023-08-07T09:01:28;99532.78;;;24.42;35.59
25650;BME280;13505;45.196;5.696;2023-08-07T09:06:19;99528.63;;;23.24;36.66
25650;BME280;13505;45.196;5.696;2023-08-07T09:11:13;99526.84;;;24.10;34.70
25650;BME280;13505;45.196;5.696;2023-08-07T09:16:05;99525.72;;;24.31;34.18
25650;BME280;13505;45.196;5.696;2023-08-07T09:20:58;99532.22;;;23.73;34.51
25650;BME280;13505;45.196;5.696;2023-08-07T09:25:59;99539.22;;;23.55;33.66
25650;BME280;13505;45.196;5.696;2023-08-07T09:30:52;99538.28;;;23.84;34.75
25650;BME280;13505;45.196;5.696;2023-08-07T09:35:42;99534.97;;;23.63;34.98
25650;BME280;13505;45.196;5.696;2023-08-07T09:40:35;99536.59;;;22.96;34.60
25650;BME280;13505;45.196;5.696;2023-08-07T09:45:26;99536.16;;;22.91;35.66
25650;BME280;13505;45.196;5.696;2023-08-07T09:50:18;99530.75;;;23.50;36.07
25650;BME280;13505;45.196;5.696;2023-08-07T09:55:08;99546.47;;;23.55;35.43
25650;BME280;13505;45.196;5.696;2023-08-07T10:00:00;99538.34;;;23.75;35.26
25650;BME280;13505;45.196;5.696;2023-08-07T10:04:50;99534.19;;;23.80;35.62
25650;BME280;13505;45.196;5.696;2023-08-07T10:09:42;99545.78;;;23.23;36.02
25650;BME280;13505;45.196;5.696;2023-08-07T10:14:34;99533.34;;;23.32;36.31
25650;BME280;13505;45.196;5.696;2023-08-07T10:19:24;99541.28;;;22.94;36.00
25650;BME280;13505;45.196;5.696;2023-08-07T10:24:15;99521.72;;;22.92;35.50
25650;BME280;13505;45.196;5.696;2023-08-07T10:29:09;99519.31;;;22.99;35.09
25650;BME280;13505;45.196;5.696;2023-08-07T10:34:01;99508.28;;;22.92;35.16
25650;BME280;13505;45.196;5.696;2023-08-07T10:39:09;99508.56;;;22.89;34.94
25650;BME280;13505;45.196;5.696;2023-08-07T10:44:00;99512.28;;;22.78;35.33
25650;BME280;13505;45.196;5.696;2023-08-07T10:48:55;99511.97;;;22.71;35.43
25650;BME280;13505;45.196;5.696;2023-08-07T10:53:48;99502.06;;;22.92;35.82
25650;BME280;13505;45.196;5.696;2023-08-07T10:58:40;99502.50;;;22.67;35.26
25650;BME280;13505;45.196;5.696;2023-08-07T11:03:35;99501.78;;;22.75;35.92
25650;BME280;13505;45.196;5.696;2023-08-07T11:08:25;99509.16;;;23.60;34.99
25650;BME280;13505;45.196;5.696;2023-08-07T11:13:16;99508.91;;;23.63;34.29
25650;BME280;13505;45.196;5.696;2023-08-07T11:18:06;99489.03;;;24.02;34.31
25650;BME280;13505;45.196;5.696;2023-08-07T11:22:58;99499.81;;;25.03;33.90
25650;BME280;13505;45.196;5.696;2023-08-07T11:27:49;99493.84;;;25.62;31.84
25650;BME280;13505;45.196;5.696;2023-08-07T11:32:39;99492.19;;;26.12;30.68
25650;BME280;13505;45.196;5.696;2023-08-07T11:37:30;99491.13;;;26.56;30.08
25650;BME280;13505;45.196;5.696;2023-08-07T11:42:21;99488.25;;;26.66;29.37
25650;BME280;13505;45.196;5.696;2023-08-07T11:47:12;99483.00;;;26.65;29.61
25650;BME280;13505;45.196;5.696;2023-08-07T11:52:03;99480.16;;;26.83;30.18
25650;BME280;13505;45.196;5.696;2023-08-07T11:56:53;99481.50;;;27.20;28.62
25650;BME280;13505;45.196;5.696;2023-08-07T12:01:45;99471.31;;;27.39;28.86
25650;BME280;13505;45.196;5.696;2023-08-07T12:06:36;99478.22;;;27.66;28.41
25650;BME280;13505;45.196;5.696;2023-08-07T12:11:29;99473.16;;;27.47;28.69
25650;BME280;13505;45.196;5.696;2023-08-07T12:16:20;99464.63;;;27.75;27.86
25650;BME280;13505;45.196;5.696;2023-08-07T12:21:13;99453.91;;;27.90;28.29
25650;BME280;13505;45.196;5.696;2023-08-07T12:26:05;99454.56;;;27.92;28.27
25650;BME280;13505;45.196;5.696;2023-08-07T12:30:57;99443.50;;;28.02;27.72
25650;BME280;13505;45.196;5.696;2023-08-07T12:35:47;99438.91;;;28.02;27.33
25650;BME280;13505;45.196;5.696;2023-08-07T12:40:37;99445.25;;;28.18;27.11
25650;BME280;13505;45.196;5.696;2023-08-07T12:45:28;99439.66;;;28.27;27.78
25650;BME280;13505;45.196;5.696;2023-08-07T12:50:18;99441.03;;;28.47;27.04
25650;BME280;13505;45.196;5.696;2023-08-07T12:55:09;99441.63;;;28.34;26.60
25650;BME280;13505;45.196;5.696;2023-08-07T13:00:00;99429.09;;;28.01;27.76
25650;BME280;13505;45.196;5.696;2023-08-07T13:04:50;99431.31;;;28.29;27.63
25650;BME280;13505;45.196;5.696;2023-08-07T13:09:41;99440.50;;;28.51;27.86
25650;BME280;13505;45.196;5.696;2023-08-07T13:14:31;99442.28;;;28.36;26.19
25650;BME280;13505;45.196;5.696;2023-08-07T13:19:21;99439.78;;;28.73;27.21
25650;BME280;13505;45.196;5.696;2023-08-07T13:24:12;99439.44;;;28.29;27.43
25650;BME280;13505;45.196;5.696;2023-08-07T13:29:02;99421.66;;;28.73;26.49
25650;BME280;13505;45.196;5.696;2023-08-07T13:33:52;99419.59;;;28.75;27.09
25650;BME280;13505;45.196;5.696;2023-08-07T13:38:43;99418.78;;;28.51;27.15
25650;BME280;13505;45.196;5.696;2023-08-07T13:43:33;99429.03;;;28.41;27.85
25650;BME280;13505;45.196;5.696;2023-08-07T13:48:23;99424.97;;;28.60;27.29
25650;BME280;13505;45.196;5.696;2023-08-07T13:53:16;99419.56;;;28.60;26.63
25650;BME280;13505;45.196;5.696;2023-08-07T13:58:07;99424.88;;;28.53;26.69
25650;BME280;13505;45.196;5.696;2023-08-07T14:02:59;99428.44;;;28.31;26.97
25650;BME280;13505;45.196;5.696;2023-08-07T14:07:49;99420.47;;;28.52;27.27
25650;BME280;13505;45.196;5.696;2023-08-07T14:12:40;99439.41;;;28.61;27.10
25650;BME280;13505;45.196;5.696;2023-08-07T14:17:30;99419.69;;;28.44;26.95
25650;BME280;13505;45.196;5.696;2023-08-07T14:22:21;99415.28;;;28.19;27.69
25650;BME280;13505;45.196;5.696;2023-08-07T14:27:11;99422.38;;;28.52;26.79
25650;BME280;13505;45.196;5.696;2023-08-07T14:32:01;99414.09;;;28.45;26.47
25650;BME280;13505;45.196;5.696;2023-08-07T14:36:52;99400.72;;;28.20;27.60
25650;BME280;13505;45.196;5.696;2023-08-07T14:41:44;99405.97;;;28.13;28.13
25650;BME280;13505;45.196;5.696;2023-08-07T14:46:34;99408.53;;;28.15;27.76
25650;BME280;13505;45.196;5.696;2023-08-07T14:51:25;99395.69;;;28.09;27.04
25650;BME280;13505;45.196;5.696;2023-08-07T14:56:15;99396.59;;;28.01;27.03
25650;BME280;13505;45.196;5.696;2023-08-07T15:01:05;99395.63;;;27.54;27.52
25650;BME280;13505;45.196;5.696;2023-08-07T15:05:56;99391.69;;;27.65;28.01
25650;BME280;13505;45.196;5.696;2023-08-07T15:10:47;99392.50;;;27.74;27.38
25650;BME280;13505;45.196;5.696;2023-08-07T15:15:38;99391.03;;;27.63;27.12
25650;BME280;13505;45.196;5.696;2023-08-07T15:20:28;99396.91;;;27.26;27.99
25650;BME280;13505;45.196;5.696;2023-08-07T15:25:19;99406.19;;;27.24;28.21
25650;BME280;13505;45.196;5.696;2023-08-07T15:30:09;99394.22;;;27.18;28.55
25650;BME280;13505;45.196;5.696;2023-08-07T15:35:00;99395.00;;;27.27;28.67
25650;BME280;13505;45.196;5.696;2023-08-07T15:39:51;99398.31;;;27.06;28.19
25650;BME280;13505;45.196;5.696;2023-08-07T15:44:42;99396.78;;;26.95;28.43
25650;BME280;13505;45.196;5.696;2023-08-07T15:49:32;99393.56;;;26.50;29.30
25650;BME280;13505;45.196;5.696;2023-08-07T15:54:22;99388.00;;;26.59;29.14
25650;BME280;13505;45.196;5.696;2023-08-07T15:59:13;99390.03;;;26.49;29.26
25650;BME280;13505;45.196;5.696;2023-08-07T16:04:03;99385.81;;;26.46;28.87
25650;BME280;13505;45.196;5.696;2023-08-07T16:08:54;99382.41;;;26.28;29.10
25650;BME280;13505;45.196;5.696;2023-08-07T16:13:46;99383.22;;;26.03;29.99
25650;BME280;13505;45.196;5.696;2023-08-07T16:18:36;99375.28;;;26.02;29.29
25650;BME280;13505;45.196;5.696;2023-08-07T16:23:27;99375.44;;;26.09;29.71
25650;BME280;13505;45.196;5.696;2023-08-07T16:28:17;99369.34;;;25.98;30.23
25650;BME280;13505;45.196;5.696;2023-08-07T16:33:09;99374.72;;;25.82;29.81
25650;BME280;13505;45.196;5.696;2023-08-07T16:37:59;99372.13;;;25.63;30.03
25650;BME280;13505;45.196;5.696;2023-08-07T16:42:50;99365.00;;;25.54;30.79
25650;BME280;13505;45.196;5.696;2023-08-07T16:47:40;99375.81;;;25.54;30.42
25650;BME280;13505;45.196;5.696;2023-08-07T16:52:30;99388.34;;;25.29;30.88
25650;BME280;13505;45.196;5.696;2023-08-07T16:57:21;99373.88;;;25.12;31.26
25650;BME280;13505;45.196;5.696;2023-08-07T17:02:12;99371.38;;;25.10;31.31
25650;BME280;13505;45.196;5.696;2023-08-07T17:07:04;99368.78;;;25.00;31.42
25650;BME280;13505;45.196;5.696;2023-08-07T17:11:54;99376.69;;;24.75;31.18
25650;BME280;13505;45.196;5.696;2023-08-07T17:16:45;99360.75;;;24.64;31.64
25650;BME280;13505;45.196;5.696;2023-08-07T17:21:35;99365.72;;;24.50;31.69
25650;BME280;13505;45.196;5.696;2023-08-07T17:26:25;99355.00;;;24.41;31.70
25650;BME280;13505;45.196;5.696;2023-08-07T17:31:19;99346.94;;;24.22;31.95
25650;BME280;13505;45.196;5.696;2023-08-07T17:36:09;99356.41;;;24.08;32.02
25650;BME280;13505;45.196;5.696;2023-08-07T17:41:00;99354.03;;;24.05;32.18
25650;BME280;13505;45.196;5.696;2023-08-07T17:45:50;99354.56;;;23.91;33.14
25650;BME280;13505;45.196;5.696;2023-08-07T17:50:41;99356.59;;;23.79;33.37
25650;BME280;13505;45.196;5.696;2023-08-07T17:55:31;99351.34;;;23.59;33.61
25650;BME280;13505;45.196;5.696;2023-08-07T18:00:21;99352.13;;;23.41;34.09
25650;BME280;13505;45.196;5.696;2023-08-07T18:05:12;99354.34;;;23.28;34.23
25650;BME280;13505;45.196;5.696;2023-08-07T18:10:03;99363.59;;;23.06;34.30
25650;BME280;13505;45.196;5.696;2023-08-07T18:14:53;99362.97;;;22.84;34.70
25650;BME280;13505;45.196;5.696;2023-08-07T18:19:46;99370.47;;;22.70;34.83
25650;BME280;13505;45.196;5.696;2023-08-07T18:24:37;99365.41;;;22.67;34.81
25650;BME280;13505;45.196;5.696;2023-08-07T18:29:27;99360.03;;;22.38;35.26
25650;BME280;13505;45.196;5.696;2023-08-07T18:34:17;99371.88;;;22.45;35.58
25650;BME280;13505;45.196;5.696;2023-08-07T18:39:08;99363.69;;;22.27;35.21
25650;BME280;13505;45.196;5.696;2023-08-07T18:44:00;99368.25;;;22.26;35.43
25650;BME280;13505;45.196;5.696;2023-08-07T18:48:51;99358.31;;;22.27;35.97
25650;BME280;13505;45.196;5.696;2023-08-07T18:53:41;99363.44;;;22.10;36.29
25650;BME280;13505;45.196;5.696;2023-08-07T18:58:32;99370.75;;;22.08;35.63
25650;BME280;13505;45.196;5.696;2023-08-07T19:03:24;99361.28;;;22.04;36.84
25650;BME280;13505;45.196;5.696;2023-08-07T19:08:14;99380.09;;;21.94;36.59
25650;BME280;13505;45.196;5.696;2023-08-07T19:13:05;99372.00;;;21.84;36.87
25650;BME280;13505;45.196;5.696;2023-08-07T19:17:58;99372.28;;;21.81;36.95
25650;BME280;13505;45.196;5.696;2023-08-07T19:22:48;99376.09;;;21.69;36.99
25650;BME280;13505;45.196;5.696;2023-08-07T19:27:39;99372.03;;;21.53;37.55
25650;BME280;13505;45.196;5.696;2023-08-07T19:32:29;99366.94;;;21.40;37.75
25650;BME280;13505;45.196;5.696;2023-08-07T19:37:19;99373.00;;;21.42;37.81
25650;BME280;13505;45.196;5.696;2023-08-07T19:42:10;99380.19;;;21.42;38.05
25650;BME280;13505;45.196;5.696;2023-08-07T19:47:00;99386.22;;;21.24;38.34
25650;BME280;13505;45.196;5.696;2023-08-07T19:51:50;99387.34;;;21.00;38.47
25650;BME280;13505;45.196;5.696;2023-08-07T19:56:41;99399.38;;;21.06;38.33
25650;BME280;13505;45.196;5.696;2023-08-07T20:01:31;99400.81;;;21.10;38.24
25650;BME280;13505;45.196;5.696;2023-08-07T20:06:22;99405.41;;;20.98;37.98
25650;BME280;13505;45.196;5.696;2023-08-07T20:11:12;99412.34;;;21.01;38.31
25650;BME280;13505;45.196;5.696;2023-08-07T20:16:03;99416.25;;;20.97;38.52
25650;BME280;13505;45.196;5.696;2023-08-07T20:20:54;99408.59;;;20.92;38.34
25650;BME280;13505;45.196;5.696;2023-08-07T20:25:45;99410.00;;;20.75;38.87
25650;BME280;13505;45.196;5.696;2023-08-07T20:30:35;99402.31;;;20.82;39.06
25650;BME280;13505;45.196;5.696;2023-08-07T20:35:26;99407.47;;;20.73;39.34
25650;BME280;13505;45.196;5.696;2023-08-07T20:40:16;99403.88;;;20.63;39.65
25650;BME280;13505;45.196;5.696;2023-08-07T20:45:07;99397.88;;;20.38;39.49
25650;BME280;13505;45.196;5.696;2023-08-07T20:49:58;99394.78;;;20.54;39.30
25650;BME280;13505;45.196;5.696;2023-08-07T20:54:48;99411.22;;;20.61;39.59
25650;BME280;13505;45.196;5.696;2023-08-07T20:59:39;99419.09;;;20.62;39.72
25650;BME280;13505;45.196;5.696;2023-08-07T21:04:29;99410.78;;;20.44;39.55
25650;BME280;13505;45.196;5.696;2023-08-07T21:09:19;99422.88;;;20.39;39.36
25650;BME280;13505;45.196;5.696;2023-08-07T21:14:10;99421.81;;;20.51;39.81
25650;BME280;13505;45.196;5.696;2023-08-07T21:19:00;99422.22;;;20.46;39.67
25650;BME280;13505;45.196;5.696;2023-08-07T21:23:51;99425.38;;;20.52;39.47
25650;BME280;13505;45.196;5.696;2023-08-07T21:28:41;99429.97;;;20.49;40.28
25650;BME280;13505;45.196;5.696;2023-08-07T21:33:32;99422.59;;;20.42;39.94
25650;BME280;13505;45.196;5.696;2023-08-07T21:38:22;99421.00;;;20.39;40.59
25650;BME280;13505;45.196;5.696;2023-08-07T21:43:12;99413.97;;;20.38;40.76
25650;BME280;13505;45.196;5.696;2023-08-07T21:48:03;99414.50;;;20.32;40.97
25650;BME280;13505;45.196;5.696;2023-08-07T21:52:53;99414.53;;;20.20;41.33
25650;BME280;13505;45.196;5.696;2023-08-07T21:57:45;99411.63;;;20.12;41.24
